Terminal Aerodrome Forecast
Issued by NWS Cleveland, OH

Home | Current Version | Previous Version | Text Only | Print | Product List | Glossary Off
Versions: 1 2 3 4 5 6 7 8 9 10 11 12 13 14 15 16 17 18 19 20 21 22 23

000
FTUS41 KCLE 151500 AAA
TAFTOL
TAF AMD
KTOL 151506Z 1515/1612 18006KT 2SM BR OVC004
      TEMPO 1515/1517 5SM BR SCT006
     FM151700 18006KT P6SM SCT022 BKN200
     FM160300 13006KT 3SM -RA SCT012 OVC020
     FM160700 17008KT 2SM -RA OVC008=

USA.gov is the U.S. government's official web portal to all federal, state and local government web resources and services.